MMTC/TRC METAR and TAF weather

Enter ICAO airport designator
Station Type Date Time Source
MMTC METAR 2024/02/26 16:45 UTC NOAA

MMTC 261645Z 13004KT 10SM BKN200 24/08 A3021 RMK 8/002 HZY


Station Type Date Time Source
MMTC Decoded METAR 2024/02/26 16:45 UTC NOAA

Torreon, Coah., Mexico (MMTC) 25-32N 103-27W 1150M
Feb 26, 2024 - 11:45 AM EST / 2024.02.26 1645 UTC
Wind: from the SE (130 degrees) at 5 MPH (4 KT):0
Visibility: 10 mile(s):0
Sky conditions: mostly cloudy
Temperature: 75 F (24 C)
Dew Point: 46 F (8 C)
Relative Humidity: 35%
Pressure (altimeter): 30.21 in. Hg (1023 hPa)
ob: MMTC 261645Z 13004KT 10SM BKN200 24/08 A3021 RMK 8/002 HZY
cycle: 17

Station Type Date Time Source
MMTC TAF 2024/02/26 18:27 UTC NOAA